Time;durP1;ratioP1;P1;durP2;ratioP2;P2;SDS_P1;SDS_P2;PMS_P1;PMS_P2;Temp;Humidity;BMP_temperature;BMP_pressure;BME280_temperature;BME280_humidity;BME280_pressure;Samples;Min_cycle;Max_cycle;Signal;HPM_P1;HPM_P2
2020/12/20 00:00:42;;;;;;;5.60;2.97;;;;;;;9.20;97.17;98392.88;5089633;28;20288;-74
2020/12/20 00:03:09;;;;;;;5.73;3.37;;;;;;;9.25;97.45;98390.50;5088795;28;20296;-74
2020/12/20 00:05:36;;;;;;;4.97;3.00;;;;;;;9.31;98.96;98390.59;5091604;28;20254;-74
2020/12/20 00:08:03;;;;;;;7.67;3.30;;;;;;;9.30;95.77;98388.13;5086228;28;20670;-74
2020/12/20 00:10:30;;;;;;;4.43;3.10;;;;;;;9.20;95.42;98384.91;5092821;28;20207;-74
2020/12/20 00:12:57;;;;;;;6.23;4.00;;;;;;;9.10;98.27;98392.34;5095085;28;20206;-74
2020/12/20 00:15:25;;;;;;;5.70;3.43;;;;;;;9.13;97.21;98387.47;5084942;28;20201;-74
2020/12/20 00:17:52;;;;;;;5.47;3.50;;;;;;;9.04;96.86;98385.88;5090449;28;20225;-74
2020/12/20 00:20:19;;;;;;;5.13;3.40;;;;;;;9.08;95.98;98387.19;5094558;28;20208;-74
2020/12/20 00:22:47;;;;;;;5.10;3.37;;;;;;;9.06;97.40;98381.22;5096241;28;20201;-74
2020/12/20 00:25:14;;;;;;;4.83;3.23;;;;;;;9.19;97.46;98381.41;5106029;28;20277;-74
2020/12/20 00:27:41;;;;;;;6.77;3.47;;;;;;;9.08;98.26;98381.06;5094418;28;20230;-74
2020/12/20 00:30:08;;;;;;;4.83;3.43;;;;;;;9.14;93.97;98381.13;5097893;28;20210;-75
2020/12/20 00:32:36;;;;;;;7.73;3.40;;;;;;;9.28;95.46;98382.16;5095844;28;20211;-74
2020/12/20 00:35:03;;;;;;;6.70;3.67;;;;;;;9.35;94.77;98375.91;5094620;28;20204;-73
2020/12/20 00:37:30;;;;;;;5.57;3.33;;;;;;;9.37;95.18;98378.38;5093768;28;20216;-73
2020/12/20 00:39:57;;;;;;;6.07;2.93;;;;;;;9.39;94.88;98384.38;5096051;28;20205;-74
2020/12/20 00:42:24;;;;;;;6.17;3.67;;;;;;;9.35;95.54;98375.91;5095415;28;20242;-73
2020/12/20 00:44:51;;;;;;;4.30;3.20;;;;;;;9.26;96.87;98374.34;5088571;28;20216;-74
2020/12/20 00:47:18;;;;;;;6.33;3.47;;;;;;;9.23;96.46;98379.22;5088974;28;20619;-73
2020/12/20 00:49:46;;;;;;;6.70;3.20;;;;;;;9.29;98.64;98373.16;5091633;28;20206;-74
2020/12/20 00:52:12;;;;;;;5.67;3.63;;;;;;;9.29;97.76;98381.16;5090073;28;20198;-73
2020/12/20 00:54:39;;;;;;;4.17;3.07;;;;;;;9.26;98.80;98382.34;5093696;28;20773;-73
2020/12/20 00:57:07;;;;;;;6.20;3.33;;;;;;;9.30;97.44;98375.66;5090689;28;20227;-73
2020/12/20 00:59:34;;;;;;;8.60;3.57;;;;;;;9.26;96.92;98371.69;5091534;28;20205;-73
2020/12/20 01:02:01;;;;;;;6.57;3.73;;;;;;;9.16;95.52;98376.47;5089585;28;20200;-74
2020/12/20 01:04:27;;;;;;;5.67;3.57;;;;;;;9.28;95.29;98374.19;5092458;28;20202;-74
2020/12/20 01:06:58;;;;;;;8.97;3.73;;;;;;;9.14;96.75;98375.78;5093613;28;20313;-74
2020/12/20 01:09:25;;;;;;;5.73;3.47;;;;;;;9.30;96.06;98362.31;5091138;28;20558;-73
2020/12/20 01:11:52;;;;;;;4.90;3.63;;;;;;;9.10;99.37;98365.72;5091934;28;20207;-74
2020/12/20 01:14:19;;;;;;;5.80;3.37;;;;;;;9.22;98.79;98366.91;5093633;28;20255;-73
2020/12/20 01:16:46;;;;;;;4.80;3.40;;;;;;;9.25;100.00;98366.53;5088121;28;20248;-74
2020/12/20 01:19:13;;;;;;;5.83;2.90;;;;;;;9.20;99.93;98368.94;5092827;28;20195;-74
2020/12/20 01:21:40;;;;;;;7.13;3.67;;;;;;;9.24;100.00;98371.03;5085870;28;20205;-74
2020/12/20 01:24:06;;;;;;;4.97;3.30;;;;;;;9.33;99.19;98369.13;5084180;28;20208;-73
2020/12/20 01:26:33;;;;;;;7.53;3.27;;;;;;;8.89;100.00;98376.25;5093187;28;20224;-74
2020/12/20 01:29:00;;;;;;;5.20;2.83;;;;;;;9.30;100.00;98372.97;5092752;28;20842;-73
2020/12/20 01:31:28;;;;;;;5.50;3.33;;;;;;;9.25;100.00;98370.03;5091095;28;20230;-74
2020/12/20 01:33:55;;;;;;;7.27;3.60;;;;;;;9.35;99.56;98370.59;5093046;28;20217;-73
2020/12/20 01:36:22;;;;;;;5.83;3.30;;;;;;;9.25;100.00;98372.72;5090311;28;20313;-74
2020/12/20 01:38:48;;;;;;;6.70;3.60;;;;;;;9.38;100.00;98370.22;5093352;28;20850;-73
2020/12/20 01:41:15;;;;;;;4.63;3.30;;;;;;;9.37;100.00;98371.22;5092504;28;20216;-73
2020/12/20 01:43:44;;;;;;;5.20;3.33;;;;;;;9.38;100.00;98375.53;5088305;28;20200;-73
2020/12/20 01:46:12;;;;;;;6.07;3.53;;;;;;;9.48;100.00;98376.09;5076289;28;20201;-73
2020/12/20 01:48:40;;;;;;;5.37;3.30;;;;;;;9.50;99.46;98379.41;5093040;28;20645;-73
2020/12/20 01:51:07;;;;;;;5.73;3.17;;;;;;;9.56;99.54;98380.47;5091891;28;20680;-74
2020/12/20 01:53:35;;;;;;;6.63;3.57;;;;;;;9.57;99.91;98364.31;5092503;28;20210;-73
2020/12/20 01:56:03;;;;;;;5.07;3.23;;;;;;;9.63;99.56;98368.06;5092430;28;20746;-73
2020/12/20 01:58:31;;;;;;;5.30;3.43;;;;;;;9.62;100.00;98358.41;5090635;28;20301;-73
2020/12/20 02:00:58;;;;;;;4.10;2.77;;;;;;;9.65;100.00;98371.38;5090817;28;20204;-74
2020/12/20 02:03:25;;;;;;;5.73;3.30;;;;;;;9.58;100.00;98365.13;5092379;28;20201;-73
2020/12/20 02:05:53;;;;;;;4.20;2.80;;;;;;;9.60;98.60;98363.13;5090780;28;20206;-74
2020/12/20 02:08:20;;;;;;;6.13;3.27;;;;;;;9.66;98.07;98352.56;5091956;28;20318;-74
2020/12/20 02:11:11;;;;;;;5.17;3.03;;;;;;;9.64;99.53;98359.88;5092315;28;20706;-74
2020/12/20 02:13:41;;;;;;;5.57;3.10;;;;;;;9.68;100.00;98360.34;5080596;28;20234;-73
2020/12/20 02:16:08;;;;;;;4.63;3.00;;;;;;;9.70;99.57;98358.31;5085573;28;20267;-74
2020/12/20 02:18:35;;;;;;;3.67;2.27;;;;;;;9.72;98.04;98353.63;5091592;28;20662;-73
2020/12/20 02:21:08;;;;;;;3.77;2.43;;;;;;;9.78;96.05;98361.69;5091777;28;20243;-73
2020/12/20 02:23:39;;;;;;;5.20;2.77;;;;;;;9.64;100.00;98356.41;5090323;28;20660;-74
2020/12/20 02:26:07;;;;;;;4.80;2.77;;;;;;;9.75;96.25;98358.59;5091954;28;20279;-74
2020/12/20 02:28:33;;;;;;;3.27;2.47;;;;;;;9.72;97.76;98356.28;5090907;28;20705;-73
2020/12/20 02:31:00;;;;;;;5.00;2.47;;;;;;;9.80;95.44;98354.34;5091669;28;20248;-73
2020/12/20 02:33:27;;;;;;;3.57;2.60;;;;;;;9.84;95.29;98358.28;5090786;28;20293;-73
2020/12/20 02:35:54;;;;;;;7.20;2.73;;;;;;;9.74;96.50;98347.09;5092169;28;20251;-73
2020/12/20 02:38:22;;;;;;;6.00;3.20;;;;;;;9.81;93.89;98341.84;5091698;28;20233;-73
2020/12/20 02:40:48;;;;;;;4.10;2.30;;;;;;;9.84;91.61;98341.47;5091665;28;20296;-74
2020/12/20 02:43:15;;;;;;;4.53;2.80;;;;;;;9.88;90.61;98340.06;5090735;28;20664;-73
2020/12/20 02:45:42;;;;;;;6.27;3.20;;;;;;;9.89;91.79;98341.75;5091230;28;20284;-74
2020/12/20 02:48:09;;;;;;;4.60;2.77;;;;;;;9.92;91.54;98344.00;5088994;28;20230;-74
2020/12/20 02:50:36;;;;;;;4.47;2.70;;;;;;;9.94;89.05;98350.00;5092891;28;20209;-73
2020/12/20 02:53:03;;;;;;;5.10;3.07;;;;;;;9.97;89.76;98350.44;5091907;28;20201;-74
2020/12/20 02:55:31;;;;;;;3.83;2.70;;;;;;;10.01;89.14;98351.72;5089480;28;20206;-73
2020/12/20 02:57:58;;;;;;;5.87;2.80;;;;;;;9.94;89.44;98339.34;5091334;28;20237;-73
2020/12/20 03:00:25;;;;;;;4.37;2.90;;;;;;;10.01;88.78;98348.22;5091116;28;20254;-74
2020/12/20 03:02:52;;;;;;;9.23;3.00;;;;;;;9.97;89.65;98349.59;5083982;28;20277;-74
2020/12/20 03:05:19;;;;;;;4.47;2.80;;;;;;;9.91;90.19;98345.88;5083004;28;20213;-74
2020/12/20 03:07:46;;;;;;;4.43;3.00;;;;;;;9.75;92.28;98356.72;5088914;28;20226;-74
2020/12/20 03:10:13;;;;;;;4.43;2.70;;;;;;;9.70;92.96;98351.13;5091593;28;20206;-74
2020/12/20 03:12:41;;;;;;;4.77;2.87;;;;;;;9.70;93.54;98353.81;5083059;28;20211;-73
2020/12/20 03:15:08;;;;;;;5.67;3.13;;;;;;;9.44;97.59;98348.16;5091356;28;20205;-74
2020/12/20 03:17:34;;;;;;;4.27;3.00;;;;;;;9.35;97.20;98354.63;5091656;28;20213;-73
2020/12/20 03:20:01;;;;;;;5.10;2.90;;;;;;;9.62;94.16;98358.41;5088332;28;20210;-74
2020/12/20 03:22:28;;;;;;;5.33;3.30;;;;;;;9.39;98.73;98355.06;5091451;28;20213;-73
2020/12/20 03:24:55;;;;;;;5.40;3.03;;;;;;;9.56;96.66;98357.34;5091698;28;20216;-74
2020/12/20 03:27:21;;;;;;;5.13;2.70;;;;;;;9.47;98.57;98355.78;5087264;28;20221;-73
2020/12/20 03:29:49;;;;;;;6.40;3.40;;;;;;;9.40;97.58;98356.72;5081920;28;20206;-76
2020/12/20 03:32:16;;;;;;;4.67;2.47;;;;;;;9.55;95.74;98357.53;5085971;28;20207;-74
2020/12/20 03:34:43;;;;;;;4.73;3.00;;;;;;;9.69;93.93;98351.34;5090949;28;20265;-74
2020/12/20 03:37:09;;;;;;;5.17;3.17;;;;;;;9.28;99.44;98348.34;5091211;28;20231;-73
2020/12/20 03:39:36;;;;;;;4.93;2.93;;;;;;;9.46;97.37;98356.81;5088695;28;20562;-73
2020/12/20 03:42:03;;;;;;;4.97;2.70;;;;;;;9.55;97.40;98350.34;5086902;28;20217;-74
2020/12/20 03:44:30;;;;;;;6.37;3.10;;;;;;;9.50;100.00;98349.25;5091737;28;20570;-74
2020/12/20 03:46:58;;;;;;;3.50;2.87;;;;;;;9.37;100.00;98351.75;5094429;28;20220;-74
2020/12/20 03:49:25;;;;;;;4.30;2.97;;;;;;;9.19;100.00;98349.44;5093518;28;20695;-74
2020/12/20 03:51:52;;;;;;;5.90;3.30;;;;;;;9.10;100.00;98355.91;5087831;28;20201;-74
2020/12/20 03:54:18;;;;;;;6.60;3.20;;;;;;;9.23;100.00;98350.75;5091147;28;20201;-73
2020/12/20 03:56:45;;;;;;;5.10;2.90;;;;;;;9.11;100.00;98352.22;5092585;28;20237;-74
2020/12/20 03:59:12;;;;;;;6.03;3.47;;;;;;;9.23;100.00;98350.75;5089897;28;20204;-74
2020/12/20 04:01:39;;;;;;;7.03;3.60;;;;;;;9.31;100.00;98353.31;5094811;28;20201;-73
2020/12/20 04:04:06;;;;;;;6.10;3.33;;;;;;;9.29;100.00;98342.00;5094625;28;20253;-73
2020/12/20 04:06:33;;;;;;;5.10;3.20;;;;;;;9.37;100.00;98341.94;5094241;28;20729;-74
2020/12/20 04:09:00;;;;;;;4.73;3.33;;;;;;;9.32;100.00;98346.97;5093582;28;20686;-73
2020/12/20 04:11:27;;;;;;;5.87;3.40;;;;;;;9.24;100.00;98339.06;5093242;28;20243;-73
2020/12/20 04:13:53;;;;;;;5.57;3.37;;;;;;;9.34;100.00;98341.47;5084667;28;20205;-73
2020/12/20 04:16:20;;;;;;;4.70;3.20;;;;;;;9.33;100.00;98342.50;5094471;28;20217;-73
2020/12/20 04:18:47;;;;;;;5.17;3.17;;;;;;;9.29;100.00;98344.66;5093087;28;20206;-74
2020/12/20 04:21:15;;;;;;;4.93;3.40;;;;;;;9.29;100.00;98351.84;5093168;28;20201;-73
2020/12/20 04:23:41;;;;;;;5.83;3.30;;;;;;;9.18;100.00;98347.81;5094119;28;20205;-74
2020/12/20 04:26:08;;;;;;;7.43;3.23;;;;;;;9.25;100.00;98350.56;5096653;28;20206;-73
2020/12/20 04:28:35;;;;;;;4.93;3.10;;;;;;;9.26;100.00;98349.53;5090912;28;20225;-74
2020/12/20 04:31:02;;;;;;;5.77;3.33;;;;;;;9.29;100.00;98346.53;5093848;28;20203;-74
2020/12/20 04:33:29;;;;;;;4.70;2.80;;;;;;;9.33;100.00;98353.16;5093954;28;20232;-73
2020/12/20 04:35:55;;;;;;;5.37;3.40;;;;;;;8.98;100.00;98346.69;5094104;28;20201;-73
2020/12/20 04:38:23;;;;;;;5.27;3.30;;;;;;;9.15;100.00;98347.34;5093274;28;20225;-73
2020/12/20 04:40:50;;;;;;;4.70;3.13;;;;;;;9.27;100.00;98348.53;5085817;28;20209;-74
2020/12/20 04:43:17;;;;;;;5.07;3.23;;;;;;;9.27;100.00;98352.03;5089489;28;20257;-74
2020/12/20 04:45:44;;;;;;;8.00;3.57;;;;;;;9.15;100.00;98342.03;5092499;28;20212;-73
2020/12/20 04:48:12;;;;;;;7.50;3.83;;;;;;;9.23;100.00;98349.94;5089348;28;20238;-74
2020/12/20 04:50:40;;;;;;;6.33;3.43;;;;;;;9.30;100.00;98351.69;5093395;28;20216;-74
2020/12/20 04:53:07;;;;;;;5.13;3.47;;;;;;;9.33;100.00;98353.16;5093310;28;20216;-74
2020/12/20 04:55:37;;;;;;;5.03;3.13;;;;;;;9.28;100.00;98348.34;5092073;28;20273;-74
2020/12/20 04:58:04;;;;;;;6.27;3.37;;;;;;;9.28;100.00;98351.00;5091901;28;20229;-74
2020/12/20 05:00:31;;;;;;;4.53;2.90;;;;;;;9.33;100.00;98355.81;5093051;28;20202;-73
2020/12/20 05:02:58;;;;;;;3.80;3.20;;;;;;;9.35;100.00;98346.63;5093177;28;20221;-73
2020/12/20 05:05:25;;;;;;;4.00;3.00;;;;;;;9.32;100.00;98341.66;5093151;28;20212;-74
2020/12/20 05:07:52;;;;;;;5.33;3.37;;;;;;;9.34;100.00;98350.28;5093379;28;20859;-73
2020/12/20 05:10:19;;;;;;;8.10;3.27;;;;;;;9.33;100.00;98348.63;5090331;28;20202;-73
2020/12/20 05:12:47;;;;;;;5.30;3.27;;;;;;;9.38;100.00;98346.22;5089406;28;20242;-73
2020/12/20 05:15:24;;;;;;;4.83;2.80;;;;;;;9.41;100.00;98350.38;5092531;28;20197;-74
2020/12/20 05:18:04;;;;;;;6.27;3.20;;;;;;;9.41;100.00;98345.88;5091526;28;20220;-73
2020/12/20 05:20:39;;;;;;;5.53;3.70;;;;;;;9.41;100.00;98345.88;5091954;28;20536;-73
2020/12/20 05:23:06;;;;;;;5.70;3.10;;;;;;;9.40;100.00;98346.06;5091595;28;20246;-74
2020/12/20 05:25:33;;;;;;;4.67;2.83;;;;;;;9.40;100.00;98346.91;5088963;28;20206;-74
2020/12/20 05:28:09;;;;;;;5.20;2.90;;;;;;;9.41;100.00;98345.03;5089604;28;20228;-74
2020/12/20 05:30:36;;;;;;;4.30;2.87;;;;;;;9.33;100.00;98355.81;5092770;28;20217;-74
2020/12/20 05:33:03;;;;;;;3.77;3.17;;;;;;;9.33;100.00;98350.47;5091781;28;20575;-74
2020/12/20 05:35:30;;;;;;;5.53;2.83;;;;;;;9.36;100.00;98364.25;5092830;28;20198;-73
2020/12/20 05:37:57;;;;;;;6.23;3.30;;;;;;;9.20;100.00;98353.78;5092334;28;20692;-74
2020/12/20 05:40:27;;;;;;;6.57;3.23;;;;;;;9.27;100.00;98353.84;5093262;28;20305;-74
2020/12/20 05:42:56;;;;;;;4.47;3.13;;;;;;;9.26;100.00;98349.53;5083255;28;20722;-74
2020/12/20 05:45:25;;;;;;;5.03;3.00;;;;;;;9.05;100.00;98350.28;5091741;28;20661;-74
2020/12/20 05:47:52;;;;;;;5.57;3.27;;;;;;;9.15;100.00;98348.19;5092240;28;20238;-74
2020/12/20 05:50:19;;;;;;;6.43;3.33;;;;;;;9.15;100.00;98350.84;5088796;28;20612;-74
2020/12/20 05:53:01;;;;;;;6.63;3.87;;;;;;;9.08;100.00;98344.59;5087809;28;20658;-77
2020/12/20 05:55:36;;;;;;;9.30;3.27;;;;;;;9.14;100.00;98345.69;5091084;28;20532;-74
2020/12/20 05:58:13;;;;;;;5.67;3.60;;;;;;;8.97;100.00;98345.03;5080707;28;20228;-73
2020/12/20 06:00:41;;;;;;;5.00;3.60;;;;;;;8.92;100.00;98341.25;5087663;28;20584;-74
2020/12/20 06:03:09;;;;;;;6.50;3.70;;;;;;;8.88;100.00;98340.81;5092940;28;20211;-73
2020/12/20 06:05:38;;;;;;;6.47;3.23;;;;;;;8.80;100.00;98346.22;5091985;28;20551;-73
2020/12/20 06:08:10;;;;;;;6.00;3.50;;;;;;;8.83;100.00;98350.38;5092115;28;20243;-76
2020/12/20 06:10:40;;;;;;;5.30;3.20;;;;;;;8.99;100.00;98345.69;5083579;28;20197;-73
2020/12/20 06:13:09;;;;;;;6.23;3.47;;;;;;;9.06;100.00;98351.09;5091922;28;20780;-74
2020/12/20 06:15:38;;;;;;;6.53;3.67;;;;;;;9.07;100.00;98352.75;5091915;28;20208;-74
2020/12/20 06:18:09;;;;;;;6.30;3.57;;;;;;;8.88;100.00;98358.63;5092390;28;20303;-74
2020/12/20 06:20:53;;;;;;;5.10;3.60;;;;;;;8.88;100.00;98361.28;5091220;28;20325;-74
2020/12/20 06:23:21;;;;;;;4.97;3.13;;;;;;;8.81;100.00;98365.66;5088039;28;20206;-74
2020/12/20 06:25:49;;;;;;;5.53;3.30;;;;;;;8.91;100.00;98375.06;5090512;28;20205;-73
2020/12/20 06:28:19;;;;;;;5.77;3.50;;;;;;;8.75;100.00;98371.72;5089261;28;20230;-76
2020/12/20 06:30:46;;;;;;;6.03;3.30;;;;;;;8.82;100.00;98373.47;5091370;28;20216;-73
2020/12/20 06:33:32;;;;;;;5.77;3.20;;;;;;;8.68;100.00;98362.81;5091968;28;20209;-74
2020/12/20 06:36:02;;;;;;;5.63;3.57;;;;;;;8.66;100.00;98368.31;5090620;28;20595;-73
2020/12/20 06:38:29;;;;;;;4.90;3.43;;;;;;;8.53;100.00;98377.91;5091390;28;20200;-74
2020/12/20 06:40:56;;;;;;;5.17;3.63;;;;;;;8.68;100.00;98368.94;5082081;28;20664;-74
2020/12/20 06:43:30;;;;;;;4.87;3.03;;;;;;;8.66;100.00;98378.94;5091139;28;20283;-74
2020/12/20 06:45:57;;;;;;;4.47;3.00;;;;;;;8.83;100.00;98382.31;5090283;28;20204;-73
2020/12/20 06:48:35;;;;;;;6.23;3.77;;;;;;;8.81;100.00;98376.31;5090996;28;20593;-74
2020/12/20 06:51:03;;;;;;;5.67;3.27;;;;;;;8.81;100.00;98379.81;5090920;28;20280;-74
2020/12/20 06:53:51;;;;;;;5.97;3.37;;;;;;;8.79;100.00;98383.66;5090737;28;20202;-74
2020/12/20 06:56:19;;;;;;;5.83;3.57;;;;;;;8.80;100.00;98378.16;5089797;28;20200;-74
2020/12/20 06:58:47;;;;;;;5.03;3.40;;;;;;;8.78;100.00;98377.50;5083286;28;20199;-73
2020/12/20 07:01:36;;;;;;;4.70;3.53;;;;;;;8.83;100.00;98379.63;5088998;28;20208;-74
2020/12/20 07:04:04;;;;;;;5.07;2.83;;;;;;;8.79;100.00;98389.78;5083999;28;20216;-73
2020/12/20 07:06:31;;;;;;;4.10;3.10;;;;;;;8.82;100.00;98383.28;5091084;28;20225;-75
2020/12/20 07:09:00;;;;;;;7.60;3.70;;;;;;;8.83;100.00;98392.94;5088952;28;20228;-73
2020/12/20 07:11:28;;;;;;;5.60;3.60;;;;;;;8.83;100.00;98387.63;5090067;28;20653;-76
2020/12/20 07:13:56;;;;;;;6.17;3.60;;;;;;;8.78;100.00;98393.47;5090865;28;20211;-74
2020/12/20 07:16:24;;;;;;;5.47;3.40;;;;;;;8.68;100.00;98395.53;5089461;28;20230;-75
2020/12/20 07:18:56;;;;;;;6.23;3.70;;;;;;;8.73;100.00;98392.38;5079621;28;20922;-76
2020/12/20 07:21:59;;;;;;;6.47;3.00;;;;;;;8.79;100.00;98400.44;5088429;28;20556;-75
2020/12/20 07:24:29;;;;;;;6.10;3.43;;;;;;;8.64;100.00;98409.41;5088919;28;20211;-77
2020/12/20 07:27:00;;;;;;;6.63;3.60;;;;;;;8.76;100.00;98411.47;5091626;28;20251;-76
2020/12/20 07:29:27;;;;;;;5.37;3.50;;;;;;;8.80;100.00;98406.59;5091073;28;20596;-73
2020/12/20 07:31:55;;;;;;;5.23;3.30;;;;;;;8.63;100.00;98410.41;5091900;28;20290;-78
2020/12/20 07:34:23;;;;;;;4.97;3.50;;;;;;;8.66;100.00;98413.53;5093084;28;20390;-76
2020/12/20 07:36:50;;;;;;;5.28;3.65;;;;;;;8.73;100.00;98411.00;5093374;28;20432;-82
2020/12/20 07:39:17;;;;;;;5.03;3.57;;;;;;;8.75;100.00;98415.13;5077335;28;20289;-82
2020/12/20 07:41:45;;;;;;;5.60;3.13;;;;;;;8.57;100.00;98411.94;5084086;28;20216;-79
2020/12/20 07:44:13;;;;;;;5.20;3.30;;;;;;;8.85;100.00;98413.06;5092334;28;20284;-77
2020/12/20 07:46:40;;;;;;;5.90;3.63;;;;;;;8.85;100.00;98414.88;5095726;28;20452;-77
2020/12/20 07:49:08;;;;;;;5.43;3.63;;;;;;;9.01;100.00;98415.56;5083957;28;20221;-83
2020/12/20 07:51:35;;;;;;;5.47;3.40;;;;;;;9.06;100.00;98413.19;5088006;28;20207;-76
2020/12/20 07:54:06;;;;;;;6.33;4.00;;;;;;;9.10;100.00;98409.16;5094624;28;20214;-78
2020/12/20 07:56:34;;;;;;;5.37;3.43;;;;;;;9.17;100.00;98409.22;5083800;28;20231;-77
2020/12/20 07:59:04;;;;;;;7.23;3.47;;;;;;;9.25;100.00;98417.97;5092668;28;20890;-78
2020/12/20 08:01:32;;;;;;;5.10;3.30;;;;;;;9.39;100.00;98414.47;5091302;28;20205;-78
2020/12/20 08:04:04;;;;;;;5.27;2.93;;;;;;;9.51;100.00;98421.00;5095439;28;20201;-79
2020/12/20 08:06:32;;;;;;;3.80;3.20;;;;;;;9.64;100.00;98418.50;5083639;28;20720;-75
2020/12/20 08:09:05;;;;;;;7.17;3.63;;;;;;;9.73;100.00;98412.06;5084008;28;20281;-75
2020/12/20 08:11:32;;;;;;;5.33;3.40;;;;;;;9.70;100.00;98411.63;5091537;28;20250;-77
2020/12/20 08:14:02;;;;;;;5.87;3.53;;;;;;;9.86;100.00;98414.91;5091583;28;20229;-77
2020/12/20 08:16:30;;;;;;;6.03;3.33;;;;;;;9.96;100.00;98418.13;5091973;28;20689;-76
2020/12/20 08:18:59;;;;;;;4.43;3.03;;;;;;;9.85;100.00;98418.56;5084287;28;20204;-76
2020/12/20 08:21:50;;;;;;;5.43;3.73;;;;;;;9.87;100.00;98421.06;5094221;28;20281;-79
2020/12/20 08:24:17;;;;;;;5.80;3.00;;;;;;;9.77;100.00;98417.84;5087103;28;20654;-80
2020/12/20 08:26:44;;;;;;;6.13;3.23;;;;;;;10.01;100.00;98413.06;5095157;28;20337;-80
2020/12/20 08:29:15;;;;;;;4.50;3.00;;;;;;;10.04;100.00;98420.69;5095826;28;20235;-83
2020/12/20 08:31:41;;;;;;;4.27;3.07;;;;;;;10.18;100.00;98424.31;5099213;28;20224;-81
2020/12/20 08:34:16;;;;;;;5.13;2.90;;;;;;;10.24;97.76;98421.75;5097786;28;20200;-75
2020/12/20 08:36:45;;;;;;;6.50;3.67;;;;;;;10.25;98.14;98423.38;5097756;28;20222;-77
2020/12/20 08:39:13;;;;;;;5.73;3.30;;;;;;;10.15;100.00;98420.19;5097425;28;20681;-77
2020/12/20 08:41:40;;;;;;;6.77;3.83;;;;;;;9.97;100.00;98419.75;5097570;28;20659;-77
2020/12/20 08:44:08;;;;;;;5.30;3.30;;;;;;;10.23;100.00;98423.78;5095816;28;20206;-77
2020/12/20 08:46:37;;;;;;;4.73;2.83;;;;;;;9.97;100.00;98427.75;5088153;28;20325;-78
2020/12/20 08:49:15;;;;;;;5.73;2.80;;;;;;;10.05;99.15;98425.00;5086435;28;20222;-77
2020/12/20 08:51:42;;;;;;;5.87;3.43;;;;;;;10.38;98.99;98427.22;5097580;28;20227;-77
2020/12/20 08:54:11;;;;;;;4.57;3.03;;;;;;;10.45;97.27;98423.63;5096707;28;20206;-78
2020/12/20 08:56:52;;;;;;;6.00;2.93;;;;;;;10.61;95.72;98421.50;5096720;28;20232;-77
2020/12/20 08:59:26;;;;;;;5.27;3.80;;;;;;;10.39;98.28;98422.53;5098186;28;20235;-77
2020/12/20 09:01:54;;;;;;;5.03;3.17;;;;;;;10.56;93.46;98428.44;5100737;28;20204;-77
2020/12/20 09:04:21;;;;;;;4.63;3.33;;;;;;;10.68;92.71;98432.25;5101233;28;20206;-77
2020/12/20 09:07:06;;;;;;;4.67;3.00;;;;;;;10.77;90.80;98433.78;5105370;28;20219;-78
2020/12/20 09:09:33;;;;;;;8.83;3.90;;;;;;;10.25;95.50;98422.56;5100729;28;20237;-76
2020/12/20 09:12:20;;;;;;;6.73;4.13;;;;;;;10.49;93.22;98424.88;5099633;28;20688;-75
2020/12/20 09:15:00;;;;;;;5.37;3.23;;;;;;;10.45;92.52;98427.09;5080992;28;20192;-73
2020/12/20 09:17:49;;;;;;;7.13;3.90;;;;;;;10.96;88.13;98439.28;5091585;28;20257;-73
2020/12/20 09:20:18;;;;;;;6.47;3.73;;;;;;;11.18;88.48;98435.56;5090744;28;20248;-73
2020/12/20 09:22:47;;;;;;;6.37;3.47;;;;;;;11.48;86.11;98439.69;5077635;28;20656;-73
2020/12/20 09:25:15;;;;;;;5.03;3.13;;;;;;;11.79;82.26;98444.63;5093970;28;20197;-73
2020/12/20 09:27:53;;;;;;;6.33;3.40;;;;;;;11.67;83.68;98440.03;5093853;28;20225;-73
2020/12/20 09:30:39;;;;;;;4.43;3.27;;;;;;;12.00;81.12;98444.50;5093755;28;20211;-72
2020/12/20 09:33:18;;;;;;;3.60;3.10;;;;;;;11.67;84.20;98437.34;5084778;28;20206;-73
2020/12/20 09:35:56;;;;;;;5.43;2.73;;;;;;;11.97;82.62;98436.06;5093595;28;20330;-74
2020/12/20 09:38:24;;;;;;;7.63;3.47;;;;;;;11.47;82.71;98439.88;5093783;28;20220;-75
2020/12/20 09:40:59;;;;;;;5.17;3.10;;;;;;;11.86;81.04;98439.31;5090038;28;20211;-75
2020/12/20 09:43:26;;;;;;;5.27;3.00;;;;;;;12.07;81.25;98437.34;5091480;28;20207;-73
2020/12/20 09:45:53;;;;;;;5.43;2.90;;;;;;;12.13;79.55;98444.56;5094286;28;20206;-71
2020/12/20 09:48:21;;;;;;;5.17;3.40;;;;;;;12.11;79.23;98438.59;5094115;28;20319;-75
2020/12/20 09:50:47;;;;;;;4.50;3.13;;;;;;;11.70;82.09;98437.78;5096726;28;20658;-78
2020/12/20 09:53:14;;;;;;;5.27;3.13;;;;;;;11.05;90.89;98427.44;5096540;28;20291;-79
2020/12/20 09:55:42;;;;;;;6.00;3.33;;;;;;;11.19;86.42;98431.03;5104992;28;20230;-73
2020/12/20 09:58:10;;;;;;;10.10;4.13;;;;;;;11.78;84.01;98433.09;5098867;28;20224;-74
2020/12/20 10:00:37;;;;;;;7.50;4.07;;;;;;;12.00;84.83;98435.69;5095091;28;20681;-75
2020/12/20 10:03:04;;;;;;;4.87;3.37;;;;;;;12.15;82.43;98439.84;5089910;28;20296;-75
2020/12/20 10:05:31;;;;;;;5.87;4.23;;;;;;;11.92;86.01;98434.00;5093396;28;20675;-72
2020/12/20 10:07:58;;;;;;;5.10;3.40;;;;;;;11.90;83.41;98441.38;5086075;28;20249;-76
2020/12/20 10:10:25;;;;;;;7.97;3.20;;;;;;;12.30;80.52;98437.84;5100285;28;20553;-78
2020/12/20 10:12:52;;;;;;;5.57;3.37;;;;;;;12.36;79.16;98437.03;5092626;28;20296;-74
2020/12/20 10:15:19;;;;;;;4.73;3.30;;;;;;;11.81;83.37;98423.03;5106540;28;20201;-70
2020/12/20 10:17:46;;;;;;;5.03;3.27;;;;;;;11.50;85.88;98428.78;5085630;28;20229;-72
2020/12/20 10:20:13;;;;;;;4.40;3.20;;;;;;;11.83;83.96;98430.63;5090328;28;20207;-75
2020/12/20 10:22:40;;;;;;;6.77;3.53;;;;;;;12.06;85.30;98424.97;5089463;28;20572;-74
2020/12/20 10:25:07;;;;;;;4.70;3.33;;;;;;;11.76;85.65;98434.31;5096448;28;20206;-74
2020/12/20 10:27:35;;;;;;;7.90;3.60;;;;;;;12.17;83.54;98434.28;5090771;28;20228;-74
2020/12/20 10:30:02;;;;;;;4.73;3.30;;;;;;;12.08;83.31;98439.00;5084429;28;20206;-72
2020/12/20 10:32:29;;;;;;;5.03;4.10;;;;;;;11.88;85.57;98438.09;5095812;28;20203;-73
2020/12/20 10:34:56;;;;;;;6.73;4.10;;;;;;;11.89;85.50;98431.72;5088028;28;20197;-76
2020/12/20 10:37:23;;;;;;;8.17;4.20;;;;;;;11.94;85.28;98429.25;5082551;28;20223;-74
2020/12/20 10:39:50;;;;;;;6.73;3.87;;;;;;;12.15;84.42;98429.13;5088467;28;20234;-73
2020/12/20 10:42:17;;;;;;;6.70;3.67;;;;;;;12.27;84.56;98428.34;5090681;28;20206;-75
2020/12/20 10:44:44;;;;;;;7.20;4.27;;;;;;;12.33;83.67;98432.91;5087826;28;20206;-83
2020/12/20 10:47:11;;;;;;;8.03;3.53;;;;;;;12.07;85.35;98432.00;5094439;28;20219;-76
2020/12/20 10:49:38;;;;;;;5.53;3.73;;;;;;;12.24;85.96;98427.94;5097951;28;20307;-74
2020/12/20 10:52:04;;;;;;;6.80;3.93;;;;;;;11.77;89.78;98419.09;5093436;28;20201;-79
2020/12/20 10:54:31;;;;;;;9.40;4.07;;;;;;;12.27;87.54;98429.38;5090764;28;20239;-74
2020/12/20 10:57:01;;;;;;;6.03;3.53;;;;;;;12.49;86.49;98419.13;5096492;28;20240;-75
2020/12/20 10:59:28;;;;;;;8.10;3.90;;;;;;;12.48;85.89;98425.53;5091403;28;20258;-74
2020/12/20 11:01:57;;;;;;;5.57;3.50;;;;;;;12.47;84.79;98431.06;5090111;28;20250;-76
2020/12/20 11:04:24;;;;;;;6.23;4.00;;;;;;;12.50;86.96;98422.66;5092628;28;20197;-77
2020/12/20 11:06:55;;;;;;;7.07;3.67;;;;;;;12.68;85.36;98429.06;5095731;28;20267;-74
2020/12/20 11:09:25;;;;;;;6.87;3.77;;;;;;;12.84;83.95;98423.31;5093018;28;20209;-76
2020/12/20 11:11:53;;;;;;;7.47;3.80;;;;;;;13.13;81.44;98424.81;5093881;28;20260;-74
2020/12/20 11:14:21;;;;;;;5.93;3.77;;;;;;;13.01;83.37;98425.66;5090428;28;20212;-77
2020/12/20 11:16:49;;;;;;;6.43;4.13;;;;;;;12.86;82.55;98425.78;5098775;28;20310;-75
2020/12/20 11:19:16;;;;;;;5.37;3.37;;;;;;;13.32;80.57;98420.47;5090300;28;20685;-74
2020/12/20 11:21:48;;;;;;;5.90;3.20;;;;;;;13.35;79.05;98420.03;5091497;28;20236;-75
2020/12/20 11:24:15;;;;;;;5.50;3.73;;;;;;;13.20;80.23;98414.06;5089812;28;20201;-74
2020/12/20 11:26:43;;;;;;;7.13;3.20;;;;;;;13.44;80.82;98416.13;5093281;28;20233;-74
2020/12/20 11:29:10;;;;;;;5.40;2.83;;;;;;;13.54;78.48;98416.50;5098998;28;20288;-75
2020/12/20 11:31:38;;;;;;;4.73;2.90;;;;;;;13.70;76.19;98410.69;5088434;28;20205;-76
2020/12/20 11:34:06;;;;;;;4.40;2.93;;;;;;;13.87;75.90;98412.69;5090122;28;20208;-76
2020/12/20 11:36:33;;;;;;;3.93;2.90;;;;;;;14.03;75.77;98404.16;5090891;28;20220;-76
2020/12/20 11:39:00;;;;;;;8.40;3.70;;;;;;;13.61;78.68;98402.06;5091435;28;20736;-75
2020/12/20 11:41:28;;;;;;;3.97;2.93;;;;;;;13.23;82.44;98395.72;5092660;28;20214;-76
2020/12/20 11:43:55;;;;;;;5.30;3.00;;;;;;;13.24;79.92;98396.56;5101867;28;20201;-72